Time;durP1;ratioP1;P1;durP2;ratioP2;P2;SDS_P1;SDS_P2;PMS_P1;PMS_P2;Temp;Humidity;BMP_temperature;BMP_pressure;BME280_temperature;BME280_humidity;BME280_pressure;Samples;Min_cycle;Max_cycle;Signal;HPM_P1;HPM_P2
2022/01/14 00:01:55;;;;;;;;;106.33;96.00;;;;;-142.59;100.00;56100.38;4913995;28;49808;-71
2022/01/14 00:04:21;;;;;;;;;105.67;88.33;;;;;-142.59;100.00;56100.38;4896812;28;49891;-73
2022/01/14 00:06:46;;;;;;;;;100.67;82.33;;;;;-142.59;100.00;56100.38;4914365;28;49979;-73
2022/01/14 00:09:13;;;;;;;;;96.33;77.67;;;;;-142.59;100.00;56100.38;4914052;28;50764;-66
2022/01/14 00:11:45;;;;;;;;;101.00;81.33;;;;;-142.59;100.00;56100.38;4914167;28;49762;-72
2022/01/14 00:16:40;;;;;;;;;95.67;72.67;;;;;-142.59;100.00;56100.38;4914219;28;49963;-72
2022/01/14 00:19:05;;;;;;;;;89.00;69.67;;;;;-142.59;100.00;56100.38;4913736;28;49907;-66
2022/01/14 00:21:34;;;;;;;;;98.00;75.33;;;;;-142.59;100.00;56100.38;4913997;28;49906;-70
2022/01/14 00:24:08;;;;;;;;;96.67;72.33;;;;;-142.59;100.00;56100.38;4913747;28;49772;-68
2022/01/14 00:32:18;;;;;;;;;98.00;75.00;;;;;-142.59;100.00;56100.38;4913807;28;49776;-73
2022/01/14 00:34:44;;;;;;;;;89.00;69.67;;;;;-142.59;100.00;56100.38;4913634;28;50095;-68
2022/01/14 00:37:09;;;;;;;;;88.67;71.33;;;;;-142.59;100.00;56100.38;4913977;28;49817;-66
2022/01/14 00:39:34;;;;;;;;;90.00;70.33;;;;;-142.59;100.00;56100.38;4913226;28;49708;-69
2022/01/14 00:42:00;;;;;;;;;90.67;71.00;;;;;-142.59;100.00;56100.38;4896180;28;49929;-66
2022/01/14 00:44:26;;;;;;;;;90.00;68.67;;;;;-142.59;100.00;56100.38;4912647;28;49841;-70
2022/01/14 00:46:51;;;;;;;;;91.67;68.33;;;;;-142.59;100.00;56100.38;4896241;28;49930;-66
2022/01/14 00:49:18;;;;;;;;;86.67;68.67;;;;;-142.59;100.00;56100.38;4913376;28;49773;-67
2022/01/14 00:51:45;;;;;;;;;90.33;70.00;;;;;-142.59;100.00;56100.38;4896090;28;49874;-66
2022/01/14 00:54:11;;;;;;;;;90.33;67.00;;;;;-142.59;100.00;56100.38;4913453;28;49881;-73
2022/01/14 00:59:14;;;;;;;;;82.67;68.00;;;;;-142.59;100.00;56100.38;4913024;28;49772;-73
2022/01/14 01:01:51;;;;;;;;;91.67;71.00;;;;;-142.59;100.00;56100.38;4913234;28;49718;-70
2022/01/14 01:04:19;;;;;;;;;82.67;66.67;;;;;-142.59;100.00;56100.38;4913406;28;49598;-71
2022/01/14 01:06:46;;;;;;;;;84.00;65.33;;;;;-142.59;100.00;56100.38;4913660;28;49776;-68
2022/01/14 01:09:13;;;;;;;;;89.67;68.67;;;;;-142.59;100.00;56100.38;4912992;28;50131;-69
2022/01/14 01:11:44;;;;;;;;;84.67;65.00;;;;;-142.59;100.00;56100.38;4913160;28;49680;-65
2022/01/14 01:14:39;;;;;;;;;85.67;66.33;;;;;-142.59;100.00;56100.38;4895786;28;49732;-73
2022/01/14 01:16:55;;;;;;;;;90.67;67.33;;;;;-142.59;100.00;56100.38;4912818;28;49951;-68
2022/01/14 01:19:21;;;;;;;;;86.67;64.67;;;;;-142.59;100.00;56100.38;4895009;28;55050;-66
2022/01/14 01:21:46;;;;;;;;;85.00;66.67;;;;;-142.59;100.00;56100.38;4912994;28;49718;-66
2022/01/14 01:24:14;;;;;;;;;82.00;65.67;;;;;-142.59;100.00;56100.38;4895778;28;49955;-67
2022/01/14 01:26:41;;;;;;;;;81.00;63.67;;;;;-142.59;100.00;56100.38;4914625;28;49904;-71
2022/01/14 01:31:41;;;;;;;;;81.00;64.33;;;;;-142.59;100.00;56100.38;4912816;28;49748;-73
2022/01/14 01:34:13;;;;;;;;;81.67;67.33;;;;;-142.59;100.00;56100.38;4913005;28;49712;-65
2022/01/14 01:36:40;;;;;;;;;88.00;66.00;;;;;-142.59;100.00;56100.38;4912982;28;49769;-72
2022/01/14 01:39:10;;;;;;;;;78.00;63.00;;;;;-142.59;100.00;56100.38;4912610;28;51034;-65
2022/01/14 01:41:37;;;;;;;;;83.00;63.67;;;;;-142.59;100.00;56100.38;4908697;28;49729;-68
2022/01/14 01:44:06;;;;;;;;;78.33;63.00;;;;;-142.59;100.00;56100.38;4912639;28;49879;-64
2022/01/14 01:46:34;;;;;;;;;77.67;63.33;;;;;-142.59;100.00;56100.38;4912969;28;49923;-66
2022/01/14 01:48:59;;;;;;;;;84.00;65.67;;;;;-142.59;100.00;56100.38;4912530;28;50017;-71
2022/01/14 01:51:25;;;;;;;;;79.33;63.00;;;;;-142.59;100.00;56100.38;4912786;28;49789;-73
2022/01/14 01:53:50;;;;;;;;;80.00;60.33;;;;;-142.59;100.00;56100.38;4912665;28;50091;-65
2022/01/14 01:56:17;;;;;;;;;75.67;59.33;;;;;-142.59;100.00;56100.38;4916456;28;50002;-65
2022/01/14 01:58:42;;;;;;;;;71.25;57.50;;;;;-142.59;100.00;56100.38;4898497;28;51752;-70
2022/01/14 02:01:08;;;;;;;;;76.33;61.33;;;;;-142.59;100.00;56100.38;4915687;28;49764;-65
2022/01/14 02:03:36;;;;;;;;;78.33;60.67;;;;;-142.59;100.00;56100.38;4915908;28;49741;-64
2022/01/14 02:06:02;;;;;;;;;74.67;59.67;;;;;-142.59;100.00;56100.38;4916047;28;49960;-73
2022/01/14 02:08:28;;;;;;;;;73.00;59.67;;;;;-142.59;100.00;56100.38;4915765;28;50981;-66
2022/01/14 02:10:53;;;;;;;;;68.33;56.33;;;;;-142.59;100.00;56100.38;4915902;28;50141;-72
2022/01/14 02:13:19;;;;;;;;;76.33;60.00;;;;;-142.59;100.00;56100.38;4898343;28;49798;-71
2022/01/14 02:15:51;;;;;;;;;75.33;59.67;;;;;-142.59;100.00;56100.38;4915886;28;49648;-66
2022/01/14 02:23:41;;;;;;;;;72.33;56.33;;;;;-142.59;100.00;56100.38;4915784;28;49987;-70
2022/01/14 02:26:06;;;;;;;;;69.00;56.00;;;;;-142.59;100.00;56100.38;4916199;28;49731;-72
2022/01/14 02:28:32;;;;;;;;;76.67;59.67;;;;;-142.59;100.00;56100.38;4898059;28;50954;-66
2022/01/14 02:30:57;;;;;;;;;65.33;52.33;;;;;-142.59;100.00;56100.38;4915394;28;49802;-72
2022/01/14 02:33:24;;;;;;;;;67.75;57.50;;;;;-142.59;100.00;56100.38;4915674;28;49718;-73
2022/01/14 02:35:50;;;;;;;;;80.75;61.75;;;;;-142.59;100.00;56100.38;4915610;28;50025;-69
2022/01/14 02:38:18;;;;;;;;;77.67;56.33;;;;;-142.59;100.00;56100.38;4915338;28;50562;-70
2022/01/14 02:40:45;;;;;;;;;73.00;61.00;;;;;-142.59;100.00;56100.38;4915367;28;49800;-72
2022/01/14 02:43:15;;;;;;;;;71.33;58.67;;;;;-142.59;100.00;56100.38;4909335;28;49953;-68
2022/01/14 02:45:42;;;;;;;;;73.33;59.67;;;;;-142.59;100.00;56100.38;4909600;28;49877;-70
2022/01/14 02:48:08;;;;;;;;;71.50;55.25;;;;;-142.59;100.00;56100.38;4915164;28;50758;-66
2022/01/14 02:50:52;;;;;;;;;69.67;56.00;;;;;-142.59;100.00;56100.38;4915377;28;49857;-74
2022/01/14 02:56:02;;;;;;;;;69.00;55.75;;;;;-142.59;100.00;56100.38;4915289;28;49870;-68
2022/01/14 02:58:30;;;;;;;;;70.00;57.33;;;;;-142.59;100.00;56100.38;4914805;28;50509;-72
2022/01/14 03:01:01;;;;;;;;;77.00;58.67;;;;;-142.59;100.00;56100.38;4914999;28;49668;-68
2022/01/14 03:03:30;;;;;;;;;75.33;59.67;;;;;-142.59;100.00;56100.38;4914964;28;49680;-72
2022/01/14 03:05:55;;;;;;;;;74.33;60.00;;;;;-142.59;100.00;56100.38;4914355;28;49833;-70
2022/01/14 03:08:22;;;;;;;;;76.67;59.33;;;;;-142.59;100.00;56100.38;4914679;28;50642;-66
2022/01/14 03:11:05;;;;;;;;;66.50;55.75;;;;;-142.59;100.00;56100.38;4915047;28;49736;-69
2022/01/14 03:13:31;;;;;;;;;77.67;60.33;;;;;-142.59;100.00;56100.38;4914648;28;49591;-66
2022/01/14 03:15:57;;;;;;;;;75.67;59.00;;;;;-142.59;100.00;56100.38;4915157;28;49815;-73
2022/01/14 03:18:32;;;;;;;;;76.67;60.33;;;;;-142.59;100.00;56100.38;4914655;28;49958;-68
2022/01/14 03:21:10;;;;;;;;;79.67;61.00;;;;;-142.59;100.00;56100.38;4914672;28;49619;-66
2022/01/14 03:23:43;;;;;;;;;75.67;60.33;;;;;-142.59;100.00;56100.38;4896744;28;49876;-72
2022/01/14 03:26:08;;;;;;;;;86.33;61.33;;;;;-142.59;100.00;56100.38;4914903;28;50273;-68
2022/01/14 03:28:34;;;;;;;;;78.00;60.33;;;;;-142.59;100.00;56100.38;4914465;28;50270;-69
2022/01/14 03:30:59;;;;;;;;;77.67;61.33;;;;;-142.59;100.00;56100.38;4914781;28;49836;-72
2022/01/14 03:33:24;;;;;;;;;75.67;57.67;;;;;-142.59;100.00;56100.38;4897507;28;49675;-69
2022/01/14 03:35:50;;;;;;;;;76.67;60.67;;;;;-142.59;100.00;56100.38;4914559;28;49692;-69
2022/01/14 03:38:17;;;;;;;;;77.00;61.67;;;;;-142.59;100.00;56100.38;4914596;28;50738;-73
2022/01/14 03:40:42;;;;;;;;;81.67;61.00;;;;;-142.59;100.00;56100.38;4914589;28;50026;-65
2022/01/14 03:43:07;;;;;;;;;80.00;64.00;;;;;-142.59;100.00;56100.38;4914242;28;49761;-69
2022/01/14 03:45:33;;;;;;;;;68.67;57.33;;;;;-142.59;100.00;56100.38;4914899;28;49906;-66
2022/01/14 03:47:58;;;;;;;;;76.67;61.00;;;;;-142.59;100.00;56100.38;4914101;28;50698;-66
2022/01/14 03:50:25;;;;;;;;;76.67;62.33;;;;;-142.59;100.00;56100.38;4914394;28;49823;-65
2022/01/14 03:52:50;;;;;;;;;77.00;60.67;;;;;-142.59;100.00;56100.38;4914316;28;49964;-64
2022/01/14 03:55:16;;;;;;;;;78.67;61.00;;;;;-142.59;100.00;56100.38;4914462;28;49900;-65
2022/01/14 03:57:41;;;;;;;;;79.33;58.67;;;;;-142.59;100.00;56100.38;4913870;28;49918;-65
2022/01/14 04:00:07;;;;;;;;;75.67;61.00;;;;;-142.59;100.00;56100.38;4914271;28;49929;-64
2022/01/14 04:02:33;;;;;;;;;72.00;58.00;;;;;-142.59;100.00;56100.38;4916770;28;49614;-65
2022/01/14 04:04:58;;;;;;;;;82.33;61.33;;;;;-142.59;100.00;56100.38;4897216;28;49976;-64
2022/01/14 04:07:23;;;;;;;;;78.00;61.33;;;;;-142.59;100.00;56100.38;4914033;28;49911;-65
2022/01/14 04:09:49;;;;;;;;;82.33;64.00;;;;;-142.59;100.00;56100.38;4914227;28;49909;-72
2022/01/14 04:12:20;;;;;;;;;74.33;58.67;;;;;-142.59;100.00;56100.38;4913941;28;49852;-64
2022/01/14 04:17:11;;;;;;;;;81.67;61.00;;;;;-142.59;100.00;56100.38;4913657;28;50611;-65
2022/01/14 04:19:37;;;;;;;;;62.67;52.00;;;;;-142.59;100.00;56100.38;4914003;28;49951;-70
2022/01/14 04:22:02;;;;;;;;;84.00;64.00;;;;;-142.59;100.00;56100.38;4914107;28;49782;-67
2022/01/14 04:24:28;;;;;;;;;71.67;56.33;;;;;-142.59;100.00;56100.38;4914074;28;49627;-73
2022/01/14 04:26:53;;;;;;;;;73.67;60.33;;;;;-142.59;100.00;56100.38;4896233;28;51917;-72
2022/01/14 04:29:19;;;;;;;;;75.33;60.33;;;;;-142.59;100.00;56100.38;4913790;28;49732;-71
2022/01/14 04:31:44;;;;;;;;;78.67;62.00;;;;;-142.59;100.00;56100.38;4913808;28;49836;-66
2022/01/14 04:34:10;;;;;;;;;79.33;63.67;;;;;-142.59;100.00;56100.38;4913956;28;49816;-66
2022/01/14 04:36:35;;;;;;;;;73.67;59.33;;;;;-142.59;100.00;56100.38;4913552;28;50889;-67
2022/01/14 04:39:00;;;;;;;;;75.00;59.00;;;;;-142.59;100.00;56100.38;4896266;28;49834;-73
2022/01/14 04:41:26;;;;;;;;;78.67;62.67;;;;;-142.59;100.00;56100.38;4913740;28;49886;-73
2022/01/14 04:43:51;;;;;;;;;75.67;60.33;;;;;-142.59;100.00;56100.38;4913390;28;49723;-69
2022/01/14 04:49:20;;;;;;;;;76.67;59.00;;;;;-142.59;100.00;56100.38;4852041;29;50086;-66
2022/01/14 04:51:46;;;;;;;;;83.33;63.00;;;;;-142.59;100.00;56100.38;4854092;29;49957;-73
2022/01/14 04:54:11;;;;;;;;;74.00;59.00;;;;;-142.59;100.00;56100.38;4880806;28;50020;-66
2022/01/14 04:56:37;;;;;;;;;80.00;59.67;;;;;-142.59;100.00;56100.38;4899309;28;52260;-72
2022/01/14 04:59:02;;;;;;;;;74.33;60.33;;;;;-142.59;100.00;56100.38;4916292;28;49811;-64
2022/01/14 05:01:29;;;;;;;;;79.00;60.33;;;;;-142.59;100.00;56100.38;4906399;28;49910;-65
2022/01/14 05:03:57;;;;;;;;;74.67;62.00;;;;;-142.59;100.00;56100.38;4913467;28;49894;-66
2022/01/14 05:06:22;;;;;;;;;82.33;62.67;;;;;-142.59;100.00;56100.38;4913364;28;50841;-65
2022/01/14 05:08:47;;;;;;;;;81.33;65.00;;;;;-142.59;100.00;56100.38;4913174;28;49710;-72
2022/01/14 05:13:44;;;;;;;;;74.00;60.33;;;;;-142.59;100.00;56100.38;4913055;28;49698;-73
2022/01/14 05:16:09;;;;;;;;;74.67;61.00;;;;;-142.59;100.00;56100.38;4913007;28;50650;-68
2022/01/14 05:18:38;;;;;;;;;81.00;61.33;;;;;-142.59;100.00;56100.38;4899473;28;49782;-67
2022/01/14 05:21:04;;;;;;;;;86.33;65.00;;;;;-142.59;100.00;56100.38;4925660;28;49671;-68
2022/01/14 05:23:29;;;;;;;;;77.67;60.33;;;;;-142.59;100.00;56100.38;4919304;28;49508;-69
2022/01/14 05:25:55;;;;;;;;;74.00;60.00;;;;;-142.59;100.00;56100.38;4920214;28;50704;-66
2022/01/14 05:28:20;;;;;;;;;76.67;62.67;;;;;-142.59;100.00;56100.38;4912582;28;49706;-72
2022/01/14 05:30:45;;;;;;;;;74.33;58.33;;;;;-142.59;100.00;56100.38;4912476;28;49837;-75
2022/01/14 05:33:11;;;;;;;;;78.67;63.00;;;;;-142.59;100.00;56100.38;4910352;28;50278;-67
2022/01/14 05:35:36;;;;;;;;;80.67;65.33;;;;;-142.59;100.00;56100.38;4909806;28;50576;-72
2022/01/14 05:38:02;;;;;;;;;75.33;60.67;;;;;-142.59;100.00;56100.38;4906789;28;49675;-69
2022/01/14 05:40:28;;;;;;;;;82.00;64.00;;;;;-142.59;100.00;56100.38;4910642;28;49848;-69
2022/01/14 05:42:54;;;;;;;;;76.00;60.00;;;;;-142.59;100.00;56100.38;4911128;28;49943;-65
2022/01/14 05:45:20;;;;;;;;;80.00;64.67;;;;;-142.59;100.00;56100.38;4909258;28;50164;-65
2022/01/14 05:47:45;;;;;;;;;81.00;62.67;;;;;-142.59;100.00;56100.38;4912799;28;49759;-69
2022/01/14 05:50:15;;;;;;;;;77.67;61.67;;;;;-142.59;100.00;56100.38;4908463;28;49669;-67
2022/01/14 05:52:41;;;;;;;;;73.67;56.67;;;;;-142.59;100.00;56100.38;4912394;28;49862;-68
2022/01/14 05:55:09;;;;;;;;;73.00;59.00;;;;;-142.59;100.00;56100.38;4893043;28;51484;-71
2022/01/14 05:57:37;;;;;;;;;81.67;63.67;;;;;-142.59;100.00;56100.38;4909243;28;49838;-74
2022/01/14 06:00:30;;;;;;;;;73.00;59.67;;;;;-142.59;100.00;56100.38;4911510;28;49749;-75
2022/01/14 06:02:55;;;;;;;;;76.67;61.33;;;;;-142.59;100.00;56100.38;4903341;28;49914;-67
2022/01/14 06:05:21;;;;;;;;;75.67;60.33;;;;;-142.59;100.00;56100.38;4902998;28;53889;-67
2022/01/14 06:07:46;;;;;;;;;81.67;62.33;;;;;-142.59;100.00;56100.38;4909183;28;49689;-69
2022/01/14 06:10:12;;;;;;;;;75.33;61.00;;;;;-142.59;100.00;56100.38;4906007;28;49743;-71
2022/01/14 06:12:38;;;;;;;;;64.67;54.33;;;;;-142.59;100.00;56100.38;4912610;28;49912;-71
2022/01/14 06:15:04;;;;;;;;;71.33;59.00;;;;;-142.59;100.00;56100.38;4907664;28;50633;-68
2022/01/14 06:17:29;;;;;;;;;78.33;64.00;;;;;-142.59;100.00;56100.38;4911604;28;49693;-66
2022/01/14 06:19:55;;;;;;;;;72.67;59.33;;;;;-142.59;100.00;56100.38;4911535;28;49739;-72
2022/01/14 06:22:20;;;;;;;;;77.67;61.33;;;;;-142.59;100.00;56100.38;4915763;28;49826;-68
2022/01/14 06:24:46;;;;;;;;;77.00;61.33;;;;;-142.59;100.00;56100.38;4907252;28;50064;-67
2022/01/14 06:27:11;;;;;;;;;80.67;63.00;;;;;-142.59;100.00;56100.38;4916145;28;49821;-73
2022/01/14 06:29:37;;;;;;;;;69.67;55.67;;;;;-142.59;100.00;56100.38;4916761;28;49938;-73
2022/01/14 06:32:02;;;;;;;;;77.00;58.33;;;;;-142.59;100.00;56100.38;4910132;28;49851;-69
2022/01/14 06:34:27;;;;;;;;;72.67;58.33;;;;;-142.59;100.00;56100.38;4911413;28;50623;-66
2022/01/14 06:36:53;;;;;;;;;76.67;61.00;;;;;-142.59;100.00;56100.38;4914487;28;49765;-69
2022/01/14 06:39:19;;;;;;;;;67.33;54.00;;;;;-142.59;100.00;56100.38;4905970;28;49990;-71
2022/01/14 06:41:44;;;;;;;;;73.67;56.33;;;;;-142.59;100.00;56100.38;4911272;28;49749;-68
2022/01/14 06:44:09;;;;;;;;;73.33;57.00;;;;;-142.59;100.00;56100.38;4913869;28;51246;-63
2022/01/14 06:46:35;;;;;;;;;71.67;57.67;;;;;-142.59;100.00;56100.38;4914903;28;49802;-67
2022/01/14 06:49:00;;;;;;;;;65.00;48.33;;;;;-142.59;100.00;56100.38;4909455;28;50105;-72
2022/01/14 06:51:25;;;;;;;;;68.50;53.75;;;;;-142.59;100.00;56100.38;4916225;28;49597;-73
2022/01/14 06:53:51;;;;;;;;;71.00;54.00;;;;;-142.59;100.00;56100.38;4917860;28;50535;-69
2022/01/14 06:56:16;;;;;;;;;69.00;51.33;;;;;-142.59;100.00;56100.38;4914471;28;49817;-66
2022/01/14 06:58:43;;;;;;;;;72.00;57.25;;;;;-142.59;100.00;56100.38;4913823;28;49828;-73
2022/01/14 07:01:09;;;;;;;;;75.33;54.67;;;;;-142.59;100.00;56100.38;4914257;28;49830;-78
2022/01/14 07:03:34;;;;;;;;;59.25;48.50;;;;;-142.59;100.00;56100.38;4917545;28;50783;-74
2022/01/14 07:06:00;;;;;;;;;67.00;54.50;;;;;-142.59;100.00;56100.38;4921670;28;49679;-64
2022/01/14 07:08:25;;;;;;;;;66.25;57.00;;;;;-142.59;100.00;56100.38;4910541;28;49814;-66
2022/01/14 07:10:51;;;;;;;;;64.00;52.75;;;;;-142.59;100.00;56100.38;4907579;28;49696;-71
2022/01/14 07:13:16;;;;;;;;;63.25;51.75;;;;;-142.59;100.00;56100.38;4919791;28;49797;-65
2022/01/14 07:15:42;;;;;;;;;68.75;57.25;;;;;-142.59;100.00;56100.38;4920727;28;49634;-64
2022/01/14 07:18:09;;;;;;;;;64.50;53.50;;;;;-142.59;100.00;56100.38;4914954;28;49913;-75
2022/01/14 07:20:35;;;;;;;;;64.50;50.25;;;;;-142.59;100.00;56100.38;4919478;28;49757;-74
2022/01/14 07:23:00;;;;;;;;;66.75;52.75;;;;;-142.59;100.00;56100.38;4914792;28;50383;-77
2022/01/14 07:25:25;;;;;;;;;68.75;53.75;;;;;-142.59;100.00;56100.38;4914685;28;49695;-67
2022/01/14 07:27:51;;;;;;;;;58.50;47.50;;;;;-142.59;100.00;56100.38;4899647;28;49893;-79
2022/01/14 07:30:16;;;;;;;;;68.00;53.00;;;;;-142.59;100.00;56100.38;4900345;28;49944;-85
2022/01/14 07:32:43;;;;;;;;;64.50;52.75;;;;;-142.59;100.00;56100.38;4915698;28;50529;-68
2022/01/14 07:35:09;;;;;;;;;51.25;44.25;;;;;-142.59;100.00;56100.38;4894868;28;49993;-66
2022/01/14 07:37:35;;;;;;;;;69.50;52.25;;;;;-142.59;100.00;56100.38;4917531;28;49785;-69
2022/01/14 07:40:00;;;;;;;;;69.00;54.75;;;;;-142.59;100.00;56100.38;4915020;28;49929;-63
2022/01/14 07:42:25;;;;;;;;;65.50;55.25;;;;;-142.59;100.00;56100.38;4914119;28;49789;-72
2022/01/14 07:44:54;;;;;;;;;61.00;49.75;;;;;-142.59;100.00;56100.38;4897209;28;49862;-66
2022/01/14 07:47:19;;;;;;;;;66.25;50.25;;;;;-142.59;100.00;56100.38;4914661;28;50052;-69
2022/01/14 07:49:45;;;;;;;;;61.50;50.25;;;;;-142.59;100.00;56100.38;4914580;28;49610;-65
2022/01/14 07:52:10;;;;;;;;;59.25;49.75;;;;;-142.59;100.00;56100.38;4913573;28;50702;-65
2022/01/14 07:54:35;;;;;;;;;66.25;56.00;;;;;-142.59;100.00;56100.38;4914312;28;49634;-65
2022/01/14 07:57:02;;;;;;;;;71.00;53.50;;;;;-142.59;100.00;56100.38;4914018;28;50431;-66
2022/01/14 07:59:31;;;;;;;;;67.75;54.75;;;;;-142.59;100.00;56100.38;4914537;28;49900;-65
2022/01/14 08:01:58;;;;;;;;;67.25;55.25;;;;;-142.59;100.00;56100.38;4913814;28;50041;-65
2022/01/14 08:04:25;;;;;;;;;68.75;52.25;;;;;-142.59;100.00;56100.38;4917052;28;49899;-67
2022/01/14 08:06:53;;;;;;;;;64.50;53.75;;;;;-142.59;100.00;56100.38;4915691;28;50066;-67
2022/01/14 08:09:19;;;;;;;;;66.25;54.25;;;;;-142.59;100.00;56100.38;4914538;28;49684;-68
2022/01/14 08:11:45;;;;;;;;;67.00;53.75;;;;;-142.59;100.00;56100.38;4913616;28;50834;-69
2022/01/14 08:14:11;;;;;;;;;71.25;55.00;;;;;-142.59;100.00;56100.38;4913788;28;49681;-67
2022/01/14 08:16:37;;;;;;;;;69.00;53.75;;;;;-142.59;100.00;56100.38;4914260;28;49814;-69
2022/01/14 08:19:03;;;;;;;;;68.75;53.50;;;;;-142.59;100.00;56100.38;4918870;28;49779;-68
2022/01/14 08:21:28;;;;;;;;;75.25;57.50;;;;;-142.59;100.00;56100.38;4913772;28;49730;-65
2022/01/14 08:23:54;;;;;;;;;65.25;50.75;;;;;-142.59;100.00;56100.38;4896699;28;49961;-65
2022/01/14 08:26:19;;;;;;;;;65.25;53.50;;;;;-142.59;100.00;56100.38;4913868;28;50085;-66
2022/01/14 08:28:45;;;;;;;;;68.75;53.25;;;;;-142.59;100.00;56100.38;4913651;28;49645;-65
2022/01/14 08:31:10;;;;;;;;;67.75;53.00;;;;;-142.59;100.00;56100.38;4913728;28;50293;-67
2022/01/14 08:33:36;;;;;;;;;67.25;51.25;;;;;-142.59;100.00;56100.38;4913851;28;49661;-65
2022/01/14 08:36:02;;;;;;;;;73.00;54.75;;;;;-142.59;100.00;56100.38;4913620;28;49782;-65
2022/01/14 08:38:27;;;;;;;;;73.25;57.25;;;;;-142.59;100.00;56100.38;4913840;28;49633;-65
2022/01/14 08:40:53;;;;;;;;;66.75;56.00;;;;;-142.59;100.00;56100.38;4913459;28;49815;-65
2022/01/14 08:43:19;;;;;;;;;65.00;53.75;;;;;-142.59;100.00;56100.38;4913131;28;49721;-65
2022/01/14 08:45:45;;;;;;;;;70.50;56.00;;;;;-142.59;100.00;56100.38;4913719;28;49941;-72
2022/01/14 08:48:11;;;;;;;;;64.25;54.25;;;;;-142.59;100.00;56100.38;4918683;28;49766;-68
2022/01/14 08:50:38;;;;;;;;;63.50;52.75;;;;;-142.59;100.00;56100.38;4913652;28;50514;-66
2022/01/14 08:53:07;;;;;;;;;72.67;58.00;;;;;-142.59;100.00;56100.38;4912959;28;49674;-66
2022/01/14 08:55:34;;;;;;;;;70.50;53.00;;;;;-142.59;100.00;56100.38;4913471;28;49825;-65
2022/01/14 08:57:59;;;;;;;;;68.50;54.25;;;;;-142.59;100.00;56100.38;4913502;28;50248;-71
2022/01/14 09:00:25;;;;;;;;;76.00;59.33;;;;;-142.59;100.00;56100.38;4913251;28;50154;-72
2022/01/14 09:02:52;;;;;;;;;68.00;55.25;;;;;-142.59;100.00;56100.38;4913227;28;50156;-72
2022/01/14 09:05:18;;;;;;;;;73.33;57.33;;;;;-142.59;100.00;56100.38;4912520;28;49705;-65
2022/01/14 09:07:43;;;;;;;;;70.00;57.25;;;;;-142.59;100.00;56100.38;4896128;28;49964;-72
2022/01/14 09:10:10;;;;;;;;;71.50;54.75;;;;;-142.59;100.00;56100.38;4913042;28;49836;-72
2022/01/14 09:12:36;;;;;;;;;69.67;55.00;;;;;-142.59;100.00;56100.38;4912890;28;49666;-72
2022/01/14 09:15:03;;;;;;;;;73.00;56.75;;;;;-142.59;100.00;56100.38;4913045;28;49744;-73
2022/01/14 09:17:29;;;;;;;;;70.75;55.50;;;;;-142.59;100.00;56100.38;4913263;28;49837;-66
2022/01/14 09:19:55;;;;;;;;;66.50;53.75;;;;;-142.59;100.00;56100.38;4912892;28;49907;-66
2022/01/14 09:22:21;;;;;;;;;68.75;57.00;;;;;-142.59;100.00;56100.38;4913148;28;49785;-66
2022/01/14 09:24:47;;;;;;;;;75.00;60.00;;;;;-142.59;100.00;56100.38;4912957;28;50313;-71
2022/01/14 09:27:14;;;;;;;;;72.25;58.50;;;;;-142.59;100.00;56100.38;4912950;28;49922;-66
2022/01/14 09:29:40;;;;;;;;;71.67;54.67;;;;;-142.59;100.00;56100.38;4912706;28;49935;-70
2022/01/14 09:32:06;;;;;;;;;76.00;62.00;;;;;-142.59;100.00;56100.38;4912845;28;49750;-72
2022/01/14 09:34:33;;;;;;;;;79.67;63.33;;;;;-142.59;100.00;56100.38;4912828;28;49949;-66
2022/01/14 09:36:59;;;;;;;;;85.00;66.67;;;;;-142.59;100.00;56100.38;4913030;28;49880;-71
2022/01/14 09:39:24;;;;;;;;;84.00;65.00;;;;;-142.59;100.00;56100.38;4912585;28;51307;-71
2022/01/14 09:41:49;;;;;;;;;74.67;60.00;;;;;-142.59;100.00;56100.38;4912480;28;49846;-65
2022/01/14 09:44:16;;;;;;;;;75.00;61.00;;;;;-142.59;100.00;56100.38;4912810;28;49774;-65
2022/01/14 09:46:42;;;;;;;;;74.67;58.33;;;;;-142.59;100.00;56100.38;4912985;28;49827;-65
2022/01/14 09:49:07;;;;;;;;;77.67;62.67;;;;;-142.59;100.00;56100.38;4912521;28;49754;-65
2022/01/14 09:51:33;;;;;;;;;72.25;55.25;;;;;-142.59;100.00;56100.38;4912298;28;49812;-65
2022/01/14 09:53:58;;;;;;;;;72.50;56.25;;;;;-142.59;100.00;56100.38;4912157;28;49717;-65
2022/01/14 09:56:24;;;;;;;;;68.25;54.00;;;;;-142.59;100.00;56100.38;4912707;28;49789;-71
2022/01/14 09:58:51;;;;;;;;;73.75;58.75;;;;;-142.59;100.00;56100.38;4906359;28;49923;-71
2022/01/14 10:01:22;;;;;;;;;71.50;56.75;;;;;-142.59;100.00;56100.38;4895202;28;49943;-65
2022/01/14 10:04:02;;;;;;;;;70.50;55.75;;;;;-142.59;100.00;56100.38;4895512;28;49767;-66
2022/01/14 10:06:51;;;;;;;;;69.50;56.75;;;;;-142.59;100.00;56100.38;4895153;28;50048;-72
2022/01/14 10:09:23;;;;;;;;;66.00;53.50;;;;;-142.59;100.00;56100.38;4911869;28;50880;-67
2022/01/14 10:12:04;;;;;;;;;65.00;54.75;;;;;-142.59;100.00;56100.38;4900400;28;49808;-67
2022/01/14 10:14:31;;;;;;;;;68.50;54.00;;;;;-142.59;100.00;56100.38;4894858;28;49837;-72
2022/01/14 10:17:00;;;;;;;;;74.00;58.50;;;;;-142.59;100.00;56100.38;4915405;28;49913;-72
2022/01/14 10:19:28;;;;;;;;;67.75;52.25;;;;;-142.59;100.00;56100.38;4915704;28;50939;-66
2022/01/14 10:21:55;;;;;;;;;67.50;55.75;;;;;-142.59;100.00;56100.38;4915803;28;49788;-69
2022/01/14 10:24:24;;;;;;;;;64.75;50.25;;;;;-142.59;100.00;56100.38;4915575;28;49898;-70
2022/01/14 10:26:56;;;;;;;;;71.50;55.50;;;;;-142.59;100.00;56100.38;4915348;28;49771;-66
2022/01/14 10:29:38;;;;;;;;;69.50;56.00;;;;;-142.59;100.00;56100.38;4915372;28;51013;-72
2022/01/14 10:32:08;;;;;;;;;62.50;52.75;;;;;-142.59;100.00;56100.38;4915619;28;49758;-72
2022/01/14 10:34:35;;;;;;;;;67.75;55.00;;;;;-142.59;100.00;56100.38;4915625;28;49818;-71
2022/01/14 10:37:16;;;;;;;;;65.75;55.25;;;;;-142.59;100.00;56100.38;4915614;28;50129;-72
2022/01/14 10:39:45;;;;;;;;;70.00;56.50;;;;;-142.59;100.00;56100.38;4915374;28;49745;-71
2022/01/14 10:42:24;;;;;;;;;58.50;49.00;;;;;-142.59;100.00;56100.38;4915086;28;50106;-72
2022/01/14 10:44:50;;;;;;;;;57.75;48.00;;;;;-142.59;100.00;56100.38;4915514;28;49995;-72
2022/01/14 10:47:24;;;;;;;;;58.25;47.00;;;;;-142.59;100.00;56100.38;4915532;28;49817;-66
2022/01/14 10:49:55;;;;;;;;;65.50;52.50;;;;;-142.59;100.00;56100.38;4915260;28;50935;-70
2022/01/14 10:52:23;;;;;;;;;58.25;49.00;;;;;-142.59;100.00;56100.38;4915024;28;49940;-69
2022/01/14 10:54:51;;;;;;;;;63.25;51.00;;;;;-142.59;100.00;56100.38;4915315;28;49880;-71
2022/01/14 10:57:24;;;;;;;;;63.50;52.25;;;;;-142.59;100.00;56100.38;4915198;28;49666;-72
2022/01/14 10:59:52;;;;;;;;;64.75;50.25;;;;;-142.59;100.00;56100.38;4915108;28;49749;-71
2022/01/14 11:02:42;;;;;;;;;63.25;52.25;;;;;-142.59;100.00;56100.38;4914851;28;49971;-72
2022/01/14 11:05:24;;;;;;;;;69.75;54.00;;;;;-142.59;100.00;56100.38;4915079;28;49842;-71
2022/01/14 11:07:51;;;;;;;;;70.00;57.50;;;;;-142.59;100.00;56100.38;4915224;28;49993;-69
2022/01/14 11:10:19;;;;;;;;;66.00;51.25;;;;;-142.59;100.00;56100.38;4897669;28;51220;-71
2022/01/14 11:12:46;;;;;;;;;54.75;48.25;;;;;-142.59;100.00;56100.38;4914717;28;49836;-73
2022/01/14 11:15:12;;;;;;;;;68.50;55.00;;;;;-142.59;100.00;56100.38;4916248;28;50009;-70
2022/01/14 11:17:39;;;;;;;;;69.00;55.75;;;;;-142.59;100.00;56100.38;4897775;28;50094;-70
2022/01/14 11:20:08;;;;;;;;;69.25;58.00;;;;;-142.59;100.00;56100.38;4919613;28;50468;-72
2022/01/14 11:25:20;;;;;;;;;71.50;58.50;;;;;-142.59;100.00;56100.38;4914576;28;49791;-73
2022/01/14 11:27:53;;;;;;;;;66.25;55.25;;;;;-142.59;100.00;56100.38;4913583;28;49693;-68